Time;durP1;ratioP1;P1;durP2;ratioP2;P2;SDS_P1;SDS_P2;PMS_P1;PMS_P2;Temp;Humidity;BMP_temperature;BMP_pressure;BME280_temperature;BME280_humidity;BME280_pressure;Samples;Min_cycle;Max_cycle;Signal;HPM_P1;HPM_P2
2021/08/23 00:01:56;;;;;;;7.10;3.90;;;;;;;18.25;66.97;100672.79;92856;1208;77732;-64
2021/08/23 00:04:05;;;;;;;5.60;3.70;;;;;;;18.24;67.13;100678.30;92885;1208;82147;-64
2021/08/23 00:06:13;;;;;;;3.90;3.50;;;;;;;18.20;67.12;100671.17;92883;1208;98745;-64
2021/08/23 00:08:25;;;;;;;4.20;3.80;;;;;;;18.19;67.07;100666.60;92878;1208;88222;-73
2021/08/23 00:10:36;;;;;;;5.00;3.50;;;;;;;18.15;67.20;100659.85;92850;1209;94577;-73
2021/08/23 00:12:47;;;;;;;4.50;3.70;;;;;;;18.13;67.42;100661.44;92883;1208;78070;-73
2021/08/23 00:14:55;;;;;;;6.20;3.90;;;;;;;18.12;67.47;100669.27;92891;1208;81775;-64
2021/08/23 00:17:03;;;;;;;4.20;3.70;;;;;;;18.11;67.66;100666.02;92864;1209;97214;-64
2021/08/23 00:19:10;;;;;;;8.30;4.00;;;;;;;18.11;67.67;100664.11;92866;1209;88288;-73
2021/08/23 00:21:22;;;;;;;3.60;3.20;;;;;;;18.09;67.64;100660.95;92880;1209;94003;-73
2021/08/23 00:23:36;;;;;;;4.20;3.60;;;;;;;18.08;67.87;100655.45;92845;1208;80372;-64
2021/08/23 00:25:44;;;;;;;4.90;3.20;;;;;;;18.00;67.85;100651.15;92869;1209;82587;-64
2021/08/23 00:27:55;;;;;;;4.50;3.70;;;;;;;18.00;67.87;100650.85;92873;1208;98398;-64
2021/08/23 00:30:08;;;;;;;5.00;3.60;;;;;;;17.99;68.04;100647.31;92897;1208;87951;-73
2021/08/23 00:32:16;;;;;;;4.90;3.40;;;;;;;17.92;68.44;100641.80;92884;1199;92524;-73
2021/08/23 00:34:27;;;;;;;4.90;2.90;;;;;;;17.88;68.34;100638.14;92879;1208;80144;-64
2021/08/23 00:36:34;;;;;;;4.00;3.50;;;;;;;17.85;68.37;100636.77;92877;1208;82547;-64
2021/08/23 00:38:42;;;;;;;4.90;3.50;;;;;;;17.78;68.42;100639.35;92874;1208;97387;-73
2021/08/23 00:40:49;;;;;;;4.40;3.20;;;;;;;17.75;68.39;100644.71;92891;1208;88530;-73
2021/08/23 00:43:00;;;;;;;5.20;3.50;;;;;;;17.73;68.44;100646.63;92888;1209;93752;-69
2021/08/23 00:45:12;;;;;;;3.90;3.30;;;;;;;17.70;68.64;100647.80;92872;1209;79338;-74
2021/08/23 00:47:20;;;;;;;5.10;3.10;;;;;;;17.67;68.71;100651.42;92920;1208;81913;-73
2021/08/23 00:49:27;;;;;;;5.60;3.40;;;;;;;17.63;68.79;100657.23;92898;1209;98222;-64
2021/08/23 00:51:38;;;;;;;3.80;2.70;;;;;;;17.63;68.81;100658.96;92893;1208;87688;-63
2021/08/23 00:53:49;;;;;;;5.50;3.30;;;;;;;17.59;68.87;100663.83;92845;1208;94509;-64
2021/08/23 00:55:59;;;;;;;4.00;3.30;;;;;;;17.57;69.05;100660.41;92884;1208;79844;-64
2021/08/23 00:58:10;;;;;;;4.40;3.60;;;;;;;17.52;69.27;100655.02;92905;1208;80878;-72
2021/08/23 01:00:19;;;;;;;4.70;3.50;;;;;;;17.51;69.19;100656.38;92877;1208;98091;-74
2021/08/23 01:02:34;;;;;;;4.60;3.20;;;;;;;17.47;69.66;100662.73;92889;1209;87437;-73
2021/08/23 01:04:50;;;;;;;4.60;3.60;;;;;;;17.42;69.67;100669.11;92882;1208;94243;-64
2021/08/23 01:07:00;;;;;;;4.00;3.20;;;;;;;17.42;69.63;100662.49;92879;1209;80472;-64
2021/08/23 01:09:14;;;;;;;4.40;3.70;;;;;;;17.40;69.90;100654.53;92879;1208;80230;-64
2021/08/23 01:11:23;;;;;;;5.80;3.70;;;;;;;17.39;69.84;100654.08;92875;1208;96830;-64
2021/08/23 01:13:32;;;;;;;10.40;5.20;;;;;;;17.42;69.99;100661.59;92904;1208;88657;-72
2021/08/23 01:15:40;;;;;;;8.20;5.50;;;;;;;17.41;70.05;100659.80;92869;1208;93591;-72
2021/08/23 01:17:54;;;;;;;7.50;5.10;;;;;;;17.39;70.10;100658.27;92888;1208;80266;-73
2021/08/23 01:20:06;;;;;;;7.60;5.20;;;;;;;17.40;70.16;100654.70;92893;1208;80447;-73
2021/08/23 01:22:15;;;;;;;9.10;5.50;;;;;;;17.36;70.34;100653.77;92900;1208;99816;-73
2021/08/23 01:24:26;;;;;;;8.30;5.10;;;;;;;17.35;70.54;100648.38;92865;1208;88159;-73
2021/08/23 01:26:41;;;;;;;8.70;5.30;;;;;;;17.32;70.58;100648.17;92876;1208;94423;-73
2021/08/23 01:29:00;;;;;;;7.30;4.70;;;;;;;17.28;70.95;100638.86;92871;1208;81210;-64
2021/08/23 01:31:30;;;;;;;6.10;4.20;;;;;;;17.23;71.04;100635.65;90527;1208;3012798;-64
2021/08/23 01:33:39;;;;;;;6.20;3.90;;;;;;;17.22;71.17;100637.77;92914;1208;98249;-64
2021/08/23 01:35:47;;;;;;;5.40;3.50;;;;;;;17.23;71.13;100644.38;92889;1208;87953;-64
2021/08/23 01:37:55;;;;;;;4.20;3.30;;;;;;;17.23;71.41;100642.28;92875;1208;94483;-64
2021/08/23 01:40:04;;;;;;;5.50;3.60;;;;;;;17.19;71.35;100637.61;92853;1208;81163;-73
2021/08/23 01:42:12;;;;;;;5.60;3.10;;;;;;;17.20;71.42;100637.70;92880;1200;80385;-73
2021/08/23 01:44:22;;;;;;;4.30;3.40;;;;;;;17.18;71.48;100634.95;92882;1208;98988;-63
2021/08/23 01:46:34;;;;;;;6.40;3.40;;;;;;;17.16;71.63;100629.67;92894;1208;86570;-64
2021/08/23 01:48:41;;;;;;;5.40;3.30;;;;;;;17.14;71.71;100622.33;92898;1208;94800;-64
2021/08/23 01:50:50;;;;;;;4.40;3.10;;;;;;;17.13;71.84;100618.65;92863;1208;80250;-64
2021/08/23 01:52:58;;;;;;;4.10;3.70;;;;;;;17.10;71.97;100615.33;92892;1200;80674;-67
2021/08/23 01:55:08;;;;;;;4.50;3.30;;;;;;;17.09;71.95;100614.11;92870;1208;98999;-73
2021/08/23 01:57:20;;;;;;;4.90;3.60;;;;;;;17.08;72.19;100619.16;92894;1208;86469;-73
2021/08/23 01:59:28;;;;;;;5.40;3.20;;;;;;;17.07;72.22;100616.49;92846;1208;92943;-64
2021/08/23 02:01:39;;;;;;;4.10;3.50;;;;;;;17.07;72.18;100616.41;92876;1209;82051;-64
2021/08/23 02:03:47;;;;;;;5.10;3.20;;;;;;;17.05;72.29;100615.67;92893;1208;80447;-64
2021/08/23 02:05:57;;;;;;;7.50;3.70;;;;;;;17.05;72.05;100618.15;92911;1208;98035;-64
2021/08/23 02:08:06;;;;;;;3.60;3.20;;;;;;;17.06;72.01;100616.46;92897;1209;86584;-72
2021/08/23 02:10:15;;;;;;;3.70;3.10;;;;;;;17.09;71.99;100618.58;92892;1208;94023;-73
2021/08/23 02:12:22;;;;;;;3.30;3.00;;;;;;;17.09;71.84;100622.14;92868;1209;80453;-73
2021/08/23 02:14:30;;;;;;;5.70;3.30;;;;;;;17.10;71.80;100624.23;92869;1208;82007;-72
2021/08/23 02:16:39;;;;;;;4.40;3.20;;;;;;;17.11;71.78;100624.77;92875;1208;98771;-73
2021/08/23 02:18:47;;;;;;;4.20;3.50;;;;;;;17.14;71.96;100627.73;92911;1208;86479;-73
2021/08/23 02:20:54;;;;;;;3.50;3.20;;;;;;;17.12;71.95;100629.96;92865;1208;94590;-73
2021/08/23 02:23:02;;;;;;;4.70;3.60;;;;;;;17.11;71.96;100627.87;92886;1208;77677;-71
2021/08/23 02:25:12;;;;;;;6.30;3.40;;;;;;;17.11;71.75;100632.95;92890;1208;81997;-72
2021/08/23 02:27:19;;;;;;;5.80;3.90;;;;;;;17.11;71.81;100630.05;92871;1208;98847;-73
2021/08/23 02:29:27;;;;;;;6.30;3.40;;;;;;;17.09;72.02;100631.55;92889;1208;86587;-72
2021/08/23 02:31:34;;;;;;;4.70;3.40;;;;;;;17.12;71.86;100633.08;92866;1208;95180;-72
2021/08/23 02:33:42;;;;;;;3.80;3.20;;;;;;;17.14;71.76;100630.99;92893;1208;79472;-63
2021/08/23 02:35:49;;;;;;;4.60;3.50;;;;;;;17.15;71.73;100627.58;92869;1209;82062;-63
2021/08/23 02:38:00;;;;;;;5.70;3.40;;;;;;;17.14;71.76;100624.41;92864;1208;98370;-64
2021/08/23 02:40:11;;;;;;;4.80;3.20;;;;;;;17.14;71.68;100619.88;92898;1208;86309;-72
2021/08/23 02:42:21;;;;;;;5.10;3.40;;;;;;;17.14;71.71;100619.98;92894;1209;94581;-72
2021/08/23 02:44:29;;;;;;;3.70;3.20;;;;;;;17.12;71.86;100611.36;92879;1208;78855;-64
2021/08/23 02:46:39;;;;;;;4.10;3.20;;;;;;;17.14;71.93;100613.58;92884;1208;80452;-64
2021/08/23 02:48:47;;;;;;;4.10;3.60;;;;;;;17.12;71.80;100611.52;92910;1209;97763;-64
2021/08/23 02:50:54;;;;;;;4.30;3.50;;;;;;;17.14;71.69;100605.41;92862;1208;88007;-64
2021/08/23 02:53:02;;;;;;;3.80;3.40;;;;;;;17.14;71.73;100606.44;92865;1208;93891;-72
2021/08/23 02:55:11;;;;;;;4.20;3.00;;;;;;;17.14;71.64;100604.70;92874;1208;77833;-73
2021/08/23 02:57:21;;;;;;;5.90;3.20;;;;;;;17.15;71.76;100597.39;92925;1209;80814;-74
2021/08/23 02:59:29;;;;;;;4.60;3.20;;;;;;;17.15;71.72;100594.40;92889;1208;97131;-64
2021/08/23 03:01:36;;;;;;;4.30;3.50;;;;;;;17.14;71.89;100583.84;92895;1208;87295;-63
2021/08/23 03:03:47;;;;;;;5.90;3.50;;;;;;;17.14;71.70;100583.28;92870;1208;94697;-63
2021/08/23 03:05:57;;;;;;;5.70;3.70;;;;;;;17.13;71.76;100578.34;92861;1208;80357;-64
2021/08/23 03:08:06;;;;;;;4.20;3.80;;;;;;;17.10;71.83;100575.77;92889;1208;79720;-72
2021/08/23 03:10:14;;;;;;;4.80;3.60;;;;;;;17.10;71.74;100570.85;92907;1208;98727;-72
2021/08/23 03:12:22;;;;;;;4.00;3.60;;;;;;;17.11;71.72;100567.65;92916;1208;87174;-72
2021/08/23 03:14:29;;;;;;;5.00;3.60;;;;;;;17.09;71.66;100558.14;92873;1208;94322;-63
2021/08/23 03:16:37;;;;;;;4.80;3.50;;;;;;;17.08;71.72;100556.09;92866;1208;81391;-63
2021/08/23 03:18:45;;;;;;;4.10;3.40;;;;;;;17.07;71.59;100555.09;92874;1208;80310;-63
2021/08/23 03:20:52;;;;;;;3.90;3.30;;;;;;;17.08;71.50;100555.66;92876;1208;98761;-63
2021/08/23 03:22:59;;;;;;;6.80;3.90;;;;;;;17.08;71.54;100560.67;92902;1208;88012;-71
2021/08/23 03:25:09;;;;;;;5.50;3.50;;;;;;;17.06;71.28;100565.80;92862;1209;92907;-72
2021/08/23 03:27:16;;;;;;;5.60;3.10;;;;;;;17.06;71.15;100573.33;92876;1208;79483;-72
2021/08/23 03:29:27;;;;;;;3.70;3.10;;;;;;;17.04;71.11;100584.31;92877;1209;80956;-73
2021/08/23 03:31:35;;;;;;;4.00;3.60;;;;;;;17.04;71.06;100595.11;92869;1208;98861;-73
2021/08/23 03:33:42;;;;;;;5.30;3.10;;;;;;;17.07;71.00;100605.48;92896;1208;88023;-73
2021/08/23 03:35:50;;;;;;;3.60;3.20;;;;;;;17.12;70.88;100610.16;92881;1208;94606;-74
2021/08/23 03:38:02;;;;;;;4.60;3.40;;;;;;;17.15;70.85;100614.05;92881;1208;79651;-70
2021/08/23 03:40:13;;;;;;;4.30;3.40;;;;;;;17.17;70.88;100615.98;92894;1208;80811;-63
2021/08/23 03:42:24;;;;;;;3.50;3.20;;;;;;;17.16;70.75;100615.89;92872;1208;98981;-63
2021/08/23 03:44:34;;;;;;;3.90;3.20;;;;;;;17.19;70.65;100616.20;92893;1208;88147;-64
2021/08/23 03:46:42;;;;;;;5.10;3.40;;;;;;;17.21;70.62;100618.32;92837;1209;94158;-64
2021/08/23 03:48:50;;;;;;;5.20;3.50;;;;;;;17.20;70.61;100615.05;92891;1208;78471;-64
2021/08/23 03:50:57;;;;;;;4.50;3.20;;;;;;;17.21;70.54;100616.80;92887;1209;80869;-64
2021/08/23 03:53:08;;;;;;;5.70;3.80;;;;;;;17.21;70.42;100614.91;92876;1208;98645;-64
2021/08/23 03:55:16;;;;;;;7.20;3.70;;;;;;;17.23;70.42;100618.94;92871;1208;85733;-64
2021/08/23 03:57:24;;;;;;;5.50;3.40;;;;;;;17.21;70.30;100619.84;92837;1208;94257;-64
2021/08/23 03:59:32;;;;;;;4.30;3.60;;;;;;;17.21;70.33;100619.29;92882;1208;78291;-64
2021/08/23 04:01:39;;;;;;;6.00;3.40;;;;;;;17.22;70.23;100621.50;92860;1208;81612;-63
2021/08/23 04:03:47;;;;;;;5.20;3.80;;;;;;;17.24;70.13;100619.16;92876;1208;97674;-64
2021/08/23 04:05:54;;;;;;;5.10;3.00;;;;;;;17.25;70.09;100612.05;92874;1208;88227;-63
2021/08/23 04:08:02;;;;;;;4.70;3.20;;;;;;;17.25;69.92;100616.38;92826;1208;91861;-63
2021/08/23 04:10:12;;;;;;;3.40;3.00;;;;;;;17.24;69.84;100614.92;92871;1208;79632;-65
2021/08/23 04:12:23;;;;;;;5.80;3.20;;;;;;;17.26;69.71;100608.42;92886;1208;81425;-64
2021/08/23 04:14:31;;;;;;;3.90;3.00;;;;;;;17.27;69.76;100604.64;92876;1208;97418;-73
2021/08/23 04:16:39;;;;;;;5.00;3.40;;;;;;;17.27;69.71;100606.20;92913;1208;88439;-72
2021/08/23 04:18:47;;;;;;;4.70;3.00;;;;;;;17.28;69.56;100606.39;92853;1208;94998;-64
2021/08/23 04:20:54;;;;;;;5.30;3.10;;;;;;;17.30;69.51;100601.38;92887;1208;78371;-63
2021/08/23 04:23:02;;;;;;;4.20;3.20;;;;;;;17.30;69.37;100596.63;92862;1208;81743;-71
2021/08/23 04:25:11;;;;;;;4.40;3.60;;;;;;;17.29;69.28;100602.04;92881;1208;97969;-72
2021/08/23 04:27:19;;;;;;;5.60;3.30;;;;;;;17.29;69.17;100603.43;92901;1208;86936;-72
2021/08/23 04:29:29;;;;;;;6.20;3.90;;;;;;;17.27;69.14;100598.05;92883;1208;94486;-72
2021/08/23 04:31:36;;;;;;;4.40;3.00;;;;;;;17.27;69.12;100590.73;92854;1208;78031;-72
2021/08/23 04:33:46;;;;;;;4.90;3.10;;;;;;;17.29;69.21;100591.05;92860;1208;82096;-72
2021/08/23 04:35:54;;;;;;;5.60;3.40;;;;;;;17.30;69.19;100588.19;92878;1208;98169;-72
2021/08/23 04:38:01;;;;;;;6.00;3.40;;;;;;;17.31;69.17;100580.48;92878;1208;87510;-64
2021/08/23 04:40:12;;;;;;;5.80;3.40;;;;;;;17.29;69.28;100571.94;92900;1208;93937;-64
2021/08/23 04:42:19;;;;;;;6.10;3.60;;;;;;;17.28;69.35;100570.98;92916;1208;80943;-63
2021/08/23 04:44:28;;;;;;;5.20;3.30;;;;;;;17.28;69.33;100561.83;92858;1208;82619;-72
2021/08/23 04:46:37;;;;;;;7.20;3.30;;;;;;;17.28;69.57;100555.70;92900;1202;97452;-73
2021/08/23 04:48:45;;;;;;;5.90;4.10;;;;;;;17.26;69.52;100555.20;92877;1208;87296;-73
2021/08/23 04:50:55;;;;;;;6.60;3.40;;;;;;;17.26;69.62;100559.66;92921;1208;92811;-72
2021/08/23 04:53:04;;;;;;;4.80;3.60;;;;;;;17.25;69.55;100567.41;92879;1208;80162;-64
2021/08/23 04:55:13;;;;;;;6.10;3.40;;;;;;;17.23;69.60;100567.60;92872;1208;81520;-63
2021/08/23 04:57:24;;;;;;;4.30;3.40;;;;;;;17.22;69.49;100571.27;92881;1209;98121;-63
2021/08/23 04:59:35;;;;;;;4.40;3.10;;;;;;;17.23;69.52;100575.16;92876;1209;88648;-63
2021/08/23 05:01:46;;;;;;;4.50;3.40;;;;;;;17.23;69.63;100575.80;92848;1209;92378;-64
2021/08/23 05:03:57;;;;;;;5.50;3.40;;;;;;;17.27;69.58;100581.55;92844;1209;78886;-73
2021/08/23 05:06:05;;;;;;;4.60;3.20;;;;;;;17.30;69.66;100586.02;92865;1209;81799;-73
2021/08/23 05:08:12;;;;;;;6.60;3.70;;;;;;;17.29;69.57;100586.55;92846;1209;98593;-72
2021/08/23 05:10:20;;;;;;;4.50;3.50;;;;;;;17.30;69.54;100584.11;92860;1209;88182;-72
2021/08/23 05:12:30;;;;;;;4.60;3.40;;;;;;;17.32;69.55;100584.13;92838;1209;92599;-72
2021/08/23 05:14:38;;;;;;;5.30;3.10;;;;;;;17.32;69.56;100583.23;92884;1208;79558;-71
2021/08/23 05:16:45;;;;;;;4.50;3.10;;;;;;;17.33;69.66;100585.11;92836;1203;81485;-72
2021/08/23 05:18:53;;;;;;;6.20;3.30;;;;;;;17.35;69.67;100585.52;92859;1209;98849;-72
2021/08/23 05:21:03;;;;;;;5.40;3.40;;;;;;;17.37;69.61;100582.88;92848;1209;88821;-73
2021/08/23 05:23:14;;;;;;;6.10;3.40;;;;;;;17.36;69.74;100581.60;92884;1209;95120;-63
2021/08/23 05:25:24;;;;;;;5.60;3.70;;;;;;;17.40;69.61;100588.60;92861;1208;78590;-63
2021/08/23 05:27:35;;;;;;;7.10;3.90;;;;;;;17.41;69.72;100596.45;92862;1209;81847;-63
2021/08/23 05:29:43;;;;;;;6.40;3.50;;;;;;;17.43;69.72;100601.20;92828;1209;98841;-73
2021/08/23 05:31:51;;;;;;;6.70;3.60;;;;;;;17.45;69.72;100603.54;92874;1209;88247;-73
2021/08/23 05:33:58;;;;;;;4.70;3.80;;;;;;;17.46;69.62;100607.48;92884;1209;92475;-63
2021/08/23 05:36:07;;;;;;;4.00;3.40;;;;;;;17.48;69.76;100609.27;92849;1209;78419;-63
2021/08/23 05:38:17;;;;;;;4.00;3.10;;;;;;;17.50;69.71;100613.30;92893;1209;81689;-64
2021/08/23 05:40:29;;;;;;;8.90;4.80;;;;;;;17.49;69.56;100613.94;92846;1209;98931;-63
2021/08/23 05:42:37;;;;;;;5.30;3.80;;;;;;;17.44;69.56;100614.56;92886;1209;87124;-63
2021/08/23 05:44:45;;;;;;;5.80;4.50;;;;;;;17.37;69.63;100614.90;92833;1209;92626;-73
2021/08/23 05:46:53;;;;;;;6.40;3.70;;;;;;;17.37;69.63;100611.67;92840;1209;80232;-73
2021/08/23 05:49:00;;;;;;;7.80;4.00;;;;;;;17.41;69.64;100609.77;92864;1209;81907;-73
2021/08/23 05:51:10;;;;;;;5.60;3.50;;;;;;;17.45;69.76;100614.84;92868;1209;98609;-73
2021/08/23 05:53:20;;;;;;;6.80;3.30;;;;;;;17.46;69.79;100615.21;92897;1208;87043;-63
2021/08/23 05:55:27;;;;;;;4.70;3.50;;;;;;;17.49;69.71;100613.55;92857;1208;93795;-63
2021/08/23 05:57:35;;;;;;;6.20;3.70;;;;;;;17.48;69.69;100613.26;92905;1208;79081;-63
2021/08/23 05:59:45;;;;;;;5.60;4.10;;;;;;;17.48;69.60;100608.88;92884;1208;82292;-63
2021/08/23 06:01:57;;;;;;;5.00;3.90;;;;;;;17.48;69.69;100607.02;92874;1208;97476;-65
2021/08/23 06:04:05;;;;;;;6.10;3.80;;;;;;;17.48;69.64;100606.48;92896;1209;87814;-73
2021/08/23 06:06:13;;;;;;;4.20;3.50;;;;;;;17.50;69.81;100605.41;92875;1208;94405;-74
2021/08/23 06:08:20;;;;;;;5.40;3.40;;;;;;;17.53;69.81;100601.52;92885;1208;79589;-65
2021/08/23 06:10:28;;;;;;;10.70;4.00;;;;;;;17.53;69.98;100599.63;92895;1202;81686;-64
2021/08/23 06:12:35;;;;;;;5.20;3.50;;;;;;;17.51;70.04;100598.55;92873;1208;97314;-64
2021/08/23 06:14:43;;;;;;;5.30;3.60;;;;;;;17.52;70.00;100597.91;92897;1208;87680;-64
2021/08/23 06:16:51;;;;;;;4.90;3.30;;;;;;;17.52;69.94;100594.59;92865;1208;93692;-64
2021/08/23 06:18:58;;;;;;;6.00;3.80;;;;;;;17.55;69.96;100594.37;92839;1209;81118;-73
2021/08/23 06:21:06;;;;;;;5.60;3.50;;;;;;;17.61;70.03;100595.25;92915;1208;81051;-73
2021/08/23 06:23:13;;;;;;;7.00;4.30;;;;;;;17.59;70.18;100591.79;92864;1208;99005;-64
2021/08/23 06:25:21;;;;;;;5.80;3.70;;;;;;;17.62;70.07;100590.69;92882;1208;86389;-64
2021/08/23 06:27:29;;;;;;;5.90;3.50;;;;;;;17.66;70.05;100588.17;92885;1208;93431;-64
2021/08/23 06:29:40;;;;;;;6.20;3.50;;;;;;;17.62;70.05;100585.95;92875;1208;79725;-73
2021/08/23 06:31:48;;;;;;;5.90;3.40;;;;;;;17.66;69.94;100589.42;92876;1208;81986;-73
2021/08/23 06:33:55;;;;;;;5.40;3.60;;;;;;;17.66;70.04;100592.34;92883;1208;98686;-73
2021/08/23 06:36:03;;;;;;;5.20;4.20;;;;;;;17.69;70.02;100595.27;92865;1208;87994;-73
2021/08/23 06:38:11;;;;;;;4.90;4.10;;;;;;;17.72;70.08;100596.03;92899;1208;94624;-73
2021/08/23 06:40:19;;;;;;;10.60;3.80;;;;;;;17.78;70.02;100598.46;92873;1208;78674;-74
2021/08/23 06:42:27;;;;;;;7.40;4.00;;;;;;;17.80;70.01;100604.20;92889;1199;80307;-73
2021/08/23 06:44:34;;;;;;;5.10;3.70;;;;;;;17.86;70.01;100602.89;92907;1209;97801;-73
2021/08/23 06:46:46;;;;;;;5.20;3.50;;;;;;;17.86;69.98;100605.93;92890;1208;87902;-73
2021/08/23 06:48:53;;;;;;;6.90;4.40;;;;;;;17.86;69.85;100605.23;92883;1208;92605;-73
2021/08/23 06:51:01;;;;;;;5.00;3.80;;;;;;;17.85;69.84;100610.19;92847;1209;80686;-73
2021/08/23 06:53:09;;;;;;;7.00;3.50;;;;;;;17.87;69.92;100609.57;92876;1208;82012;-74
2021/08/23 06:55:16;;;;;;;4.70;3.80;;;;;;;17.92;69.84;100608.73;92896;1208;97736;-73
2021/08/23 06:57:24;;;;;;;5.70;4.10;;;;;;;17.94;70.01;100608.96;92905;1208;88264;-74
2021/08/23 06:59:31;;;;;;;5.20;3.80;;;;;;;17.88;70.10;100611.73;92806;1208;94622;-75
2021/08/23 07:01:39;;;;;;;5.70;4.20;;;;;;;17.88;70.01;100608.20;92893;1208;78437;-74
2021/08/23 07:03:48;;;;;;;5.20;3.80;;;;;;;17.92;70.00;100605.83;92876;1208;81797;-64
2021/08/23 07:05:56;;;;;;;7.60;4.30;;;;;;;17.93;69.96;100609.65;92862;1209;98152;-64
2021/08/23 07:08:08;;;;;;;5.10;4.60;;;;;;;18.00;69.86;100606.33;92882;1208;88033;-65
2021/08/23 07:10:16;;;;;;;4.50;3.90;;;;;;;18.05;69.96;100607.45;92867;1208;94656;-64
2021/08/23 07:12:23;;;;;;;6.80;3.80;;;;;;;18.09;70.20;100605.20;92811;1208;77913;-64
2021/08/23 07:14:31;;;;;;;6.10;4.30;;;;;;;18.10;70.07;100606.16;92866;1208;80612;-64
2021/08/23 07:16:38;;;;;;;4.40;3.60;;;;;;;18.15;70.12;100606.34;92867;1209;99181;-65
2021/08/23 07:18:46;;;;;;;6.90;4.70;;;;;;;18.22;69.96;100611.90;92900;1208;88346;-64
2021/08/23 07:20:53;;;;;;;38.50;26.40;;;;;;;18.26;69.94;100604.89;92869;1208;92952;-68
2021/08/23 07:23:01;;;;;;;10.60;7.70;;;;;;;18.31;70.00;100606.59;92846;1208;80445;-65
2021/08/23 07:25:10;;;;;;;5.30;4.40;;;;;;;18.35;69.95;100604.67;92900;1208;81946;-70
2021/08/23 07:27:18;;;;;;;7.80;4.20;;;;;;;18.46;69.88;100605.39;92894;1208;96850;-68
2021/08/23 07:29:26;;;;;;;6.20;4.10;;;;;;;18.48;69.65;100608.48;92872;1208;88842;-73
2021/08/23 07:31:35;;;;;;;7.00;4.20;;;;;;;18.48;69.81;100608.77;92854;1209;95219;-73
2021/08/23 07:33:42;;;;;;;8.50;4.40;;;;;;;18.44;69.85;100610.98;92879;1207;78060;-68
2021/08/23 07:35:53;;;;;;;5.80;4.00;;;;;;;18.49;69.81;100613.31;92877;1208;81428;-67
2021/08/23 07:38:01;;;;;;;6.30;4.20;;;;;;;18.52;69.60;100616.52;92885;1208;99239;-73
2021/08/23 07:40:11;;;;;;;7.70;3.80;;;;;;;18.53;69.71;100617.58;92866;1208;86973;-75
2021/08/23 07:42:19;;;;;;;7.50;4.40;;;;;;;18.61;69.66;100620.69;92903;1208;94088;-75
2021/08/23 07:44:26;;;;;;;8.10;4.50;;;;;;;18.72;69.60;100616.85;92862;1208;79324;-68
2021/08/23 07:46:34;;;;;;;7.70;4.30;;;;;;;18.83;69.59;100618.37;92860;1209;82046;-67
2021/08/23 07:48:42;;;;;;;8.40;4.20;;;;;;;18.86;69.51;100614.11;92891;1208;97615;-68
2021/08/23 07:50:51;;;;;;;7.40;4.60;;;;;;;18.81;69.32;100621.27;92905;1209;87805;-69
2021/08/23 07:52:59;;;;;;;9.40;4.30;;;;;;;18.75;69.44;100618.85;92890;1208;93752;-72
2021/08/23 07:55:08;;;;;;;5.50;4.70;;;;;;;18.79;69.33;100619.83;92869;1208;79578;-68
2021/08/23 07:57:16;;;;;;;4.90;3.90;;;;;;;18.83;69.41;100615.09;92890;1209;82273;-66
2021/08/23 07:59:23;;;;;;;6.60;4.30;;;;;;;18.88;69.40;100618.44;92855;1208;98744;-67
2021/08/23 08:01:34;;;;;;;5.30;4.30;;;;;;;18.91;69.41;100617.46;92884;1208;86994;-63
2021/08/23 08:03:42;;;;;;;8.90;4.30;;;;;;;19.00;69.47;100612.45;92857;1208;93791;-63
2021/08/23 08:05:50;;;;;;;7.70;4.50;;;;;;;18.99;69.35;100622.03;92875;1209;79439;-67
2021/08/23 08:08:00;;;;;;;7.20;4.50;;;;;;;19.00;69.53;100617.02;92915;1209;80530;-71
2021/08/23 08:10:11;;;;;;;10.40;4.80;;;;;;;19.05;69.56;100613.30;92887;1208;98908;-67
2021/08/23 08:12:19;;;;;;;8.40;4.50;;;;;;;19.08;69.40;100615.29;92891;1209;88069;-67
2021/08/23 08:14:26;;;;;;;6.50;4.60;;;;;;;19.12;69.50;100625.89;92935;1208;92681;-68
2021/08/23 08:16:37;;;;;;;13.10;4.70;;;;;;;19.00;69.47;100625.39;92888;1208;80979;-68
2021/08/23 08:18:44;;;;;;;7.20;5.00;;;;;;;18.99;69.56;100621.36;92912;1208;82330;-78
2021/08/23 08:20:54;;;;;;;7.20;4.00;;;;;;;18.99;69.58;100626.92;92904;1209;97480;-71
2021/08/23 08:23:02;;;;;;;6.60;4.50;;;;;;;19.04;69.53;100629.36;92903;1208;87574;-68
2021/08/23 08:25:11;;;;;;;8.80;4.70;;;;;;;18.99;69.53;100635.13;92851;1209;94527;-67
2021/08/23 08:27:25;;;;;;;7.60;4.40;;;;;;;18.98;69.45;100634.16;92877;1209;78949;-66
2021/08/23 08:29:33;;;;;;;6.90;4.80;;;;;;;18.96;69.34;100635.05;92885;1207;80708;-68
2021/08/23 08:31:41;;;;;;;5.90;4.40;;;;;;;18.97;69.51;100632.77;92889;1207;99104;-66
2021/08/23 08:33:48;;;;;;;6.40;4.60;;;;;;;18.93;69.64;100632.47;92914;1208;87995;-66
2021/08/23 08:35:59;;;;;;;8.30;4.60;;;;;;;18.98;69.67;100633.01;92862;1208;94729;-64
2021/08/23 08:38:10;;;;;;;8.50;4.40;;;;;;;19.01;69.72;100633.41;92877;1208;79080;-67
2021/08/23 08:40:17;;;;;;;8.40;4.80;;;;;;;19.02;69.81;100636.45;92855;1208;82148;-64
2021/08/23 08:42:25;;;;;;;6.40;5.10;;;;;;;19.05;69.65;100639.54;92850;1209;98012;-64
2021/08/23 08:44:36;;;;;;;7.40;4.70;;;;;;;19.07;69.68;100636.02;92893;1208;87907;-64
2021/08/23 08:46:49;;;;;;;15.00;6.50;;;;;;;19.08;69.59;100639.48;92856;1208;92269;-66
2021/08/23 08:48:59;;;;;;;8.00;5.90;;;;;;;19.09;69.66;100642.14;92896;1208;79027;-74
2021/08/23 08:51:08;;;;;;;9.80;6.40;;;;;;;19.10;69.96;100645.67;92893;1209;82082;-73
2021/08/23 08:53:16;;;;;;;8.30;5.80;;;;;;;19.15;69.86;100647.92;92880;1208;98757;-66
2021/08/23 08:55:23;;;;;;;7.80;5.30;;;;;;;19.15;70.02;100649.99;92881;1209;89368;-66
2021/08/23 08:57:31;;;;;;;7.20;5.10;;;;;;;19.23;70.08;100646.69;92864;1200;93302;-72
2021/08/23 08:59:39;;;;;;;6.00;4.90;;;;;;;19.22;69.87;100649.19;92900;1209;79577;-75
2021/08/23 09:01:48;;;;;;;9.40;4.70;;;;;;;19.19;69.69;100651.95;92876;1208;82193;-74
2021/08/23 09:04:04;;;;;;;7.50;5.00;;;;;;;19.21;69.74;100647.69;92873;1209;98538;-71
2021/08/23 09:06:12;;;;;;;6.90;4.90;;;;;;;19.25;69.61;100650.29;92891;1208;88313;-77
2021/08/23 09:08:28;;;;;;;8.70;5.60;;;;;;;19.19;69.47;100651.90;92871;1208;93577;-75
2021/08/23 09:10:41;;;;;;;7.00;5.10;;;;;;;19.16;69.45;100653.25;92863;1208;78384;-75
2021/08/23 09:13:00;;;;;;;9.90;5.70;;;;;;;19.18;69.54;100653.48;92907;1209;81912;-74
2021/08/23 09:15:10;;;;;;;6.30;4.90;;;;;;;19.25;69.59;100651.21;92884;1208;98243;-63
2021/08/23 09:17:21;;;;;;;7.50;5.30;;;;;;;19.27;69.69;100650.05;92917;1209;87917;-63
2021/08/23 09:19:33;;;;;;;6.20;5.00;;;;;;;19.25;69.47;100648.33;92843;1208;94356;-62
2021/08/23 09:21:42;;;;;;;9.90;5.30;;;;;;;19.24;69.54;100649.65;92868;1209;81584;-63
2021/08/23 09:23:52;;;;;;;8.20;5.30;;;;;;;19.26;69.65;100646.59;92852;1209;81133;-74
2021/08/23 09:26:13;;;;;;;7.00;4.90;;;;;;;19.25;69.72;100647.07;92880;1209;98788;-63
2021/08/23 09:28:23;;;;;;;7.80;4.60;;;;;;;19.27;69.87;100651.59;92905;1208;87949;-75
2021/08/23 09:30:31;;;;;;;7.30;4.90;;;;;;;19.31;70.02;100650.63;92869;1208;93829;-76
2021/08/23 09:32:53;;;;;;;7.30;5.20;;;;;;;19.28;70.07;100649.92;92885;1209;79780;-73
2021/08/23 09:35:02;;;;;;;7.30;4.80;;;;;;;19.27;70.02;100652.10;92861;1208;82157;-62
2021/08/23 09:37:17;;;;;;;7.60;5.30;;;;;;;19.27;69.97;100654.06;92854;1208;99147;-62
2021/08/23 09:39:32;;;;;;;6.30;5.10;;;;;;;19.28;69.88;100654.02;92930;1208;87634;-73
2021/08/23 09:41:42;;;;;;;7.30;5.20;;;;;;;19.28;69.81;100655.79;92874;1208;94824;-73
2021/08/23 09:43:58;;;;;;;9.10;5.20;;;;;;;19.31;70.02;100655.81;92877;1209;79150;-73
2021/08/23 09:46:11;;;;;;;8.70;5.00;;;;;;;19.32;70.02;100651.70;92872;1199;80711;-73
2021/08/23 09:48:20;;;;;;;6.90;5.30;;;;;;;19.36;70.00;100652.30;92861;1208;98156;-72
2021/08/23 09:50:37;;;;;;;5.90;5.00;;;;;;;19.40;69.91;100654.02;92891;1208;87416;-62
2021/08/23 09:52:45;;;;;;;6.60;5.30;;;;;;;19.38;70.00;100650.88;92884;1208;94117;-62
2021/08/23 09:55:06;;;;;;;7.50;5.20;;;;;;;19.33;69.98;100651.08;92870;1208;81373;-62
2021/08/23 09:57:15;;;;;;;6.50;4.70;;;;;;;19.34;70.07;100649.46;92902;1209;81365;-62
2021/08/23 09:59:25;;;;;;;7.20;5.40;;;;;;;19.32;70.08;100648.37;92891;1208;99008;-62
2021/08/23 10:01:36;;;;;;;8.00;4.80;;;;;;;19.31;70.08;100648.13;92880;1209;86661;-62